sensor_id;sensor_type;location;lat;lon;timestamp;temperature;humidity
54190;DHT22;40340;53.208;6.582;2022-07-09T00:01:58;17.20;99.90
54190;DHT22;40340;53.208;6.582;2022-07-09T00:04:24;17.30;99.90
54190;DHT22;40340;53.208;6.582;2022-07-09T00:06:49;17.20;99.90
54190;DHT22;40340;53.208;6.582;2022-07-09T00:09:15;17.30;99.90
54190;DHT22;40340;53.208;6.582;2022-07-09T00:11:41;17.30;99.90
54190;DHT22;40340;53.208;6.582;2022-07-09T00:14:06;17.30;99.90
54190;DHT22;40340;53.208;6.582;2022-07-09T00:16:32;17.30;99.90
54190;DHT22;40340;53.208;6.582;2022-07-09T00:18:57;17.20;99.90
54190;DHT22;40340;53.208;6.582;2022-07-09T00:21:23;17.20;99.90
54190;DHT22;40340;53.208;6.582;2022-07-09T00:23:49;17.30;99.90
54190;DHT22;40340;53.208;6.582;2022-07-09T00:26:15;17.10;99.90
54190;DHT22;40340;53.208;6.582;2022-07-09T00:28:41;17.20;99.90
54190;DHT22;40340;53.208;6.582;2022-07-09T00:31:07;17.20;99.90
54190;DHT22;40340;53.208;6.582;2022-07-09T00:33:33;17.10;99.90
54190;DHT22;40340;53.208;6.582;2022-07-09T00:35:58;17.20;99.90
54190;DHT22;40340;53.208;6.582;2022-07-09T00:38:24;17.10;99.90
54190;DHT22;40340;53.208;6.582;2022-07-09T00:40:50;17.10;99.90
54190;DHT22;40340;53.208;6.582;2022-07-09T00:43:19;17.10;99.90
54190;DHT22;40340;53.208;6.582;2022-07-09T00:45:46;17.10;99.90
54190;DHT22;40340;53.208;6.582;2022-07-09T00:48:12;17.10;99.90
54190;DHT22;40340;53.208;6.582;2022-07-09T00:50:40;17.10;99.90
54190;DHT22;40340;53.208;6.582;2022-07-09T00:53:10;17.20;99.90
54190;DHT22;40340;53.208;6.582;2022-07-09T00:55:37;17.20;99.90
54190;DHT22;40340;53.208;6.582;2022-07-09T00:58:03;17.10;99.90
54190;DHT22;40340;53.208;6.582;2022-07-09T01:00:30;17.10;99.90
54190;DHT22;40340;53.208;6.582;2022-07-09T01:02:56;17.10;99.90
54190;DHT22;40340;53.208;6.582;2022-07-09T01:05:22;17.10;99.90
54190;DHT22;40340;53.208;6.582;2022-07-09T01:07:47;17.20;99.90
54190;DHT22;40340;53.208;6.582;2022-07-09T01:10:13;17.10;99.90
54190;DHT22;40340;53.208;6.582;2022-07-09T01:12:40;17.10;99.90
54190;DHT22;40340;53.208;6.582;2022-07-09T01:15:07;17.10;99.90
54190;DHT22;40340;53.208;6.582;2022-07-09T01:17:38;17.10;99.90
54190;DHT22;40340;53.208;6.582;2022-07-09T01:20:04;17.10;99.90
54190;DHT22;40340;53.208;6.582;2022-07-09T01:22:30;17.10;99.90
54190;DHT22;40340;53.208;6.582;2022-07-09T01:24:56;17.10;99.90
54190;DHT22;40340;53.208;6.582;2022-07-09T01:27:22;17.10;99.90
54190;DHT22;40340;53.208;6.582;2022-07-09T01:29:48;17.00;99.90
54190;DHT22;40340;53.208;6.582;2022-07-09T01:32:16;17.10;99.90
54190;DHT22;40340;53.208;6.582;2022-07-09T01:34:41;17.10;99.90
54190;DHT22;40340;53.208;6.582;2022-07-09T01:37:07;17.00;99.90
54190;DHT22;40340;53.208;6.582;2022-07-09T01:39:32;17.00;99.90
54190;DHT22;40340;53.208;6.582;2022-07-09T01:41:58;17.00;99.90
54190;DHT22;40340;53.208;6.582;2022-07-09T01:44:24;17.10;99.90
54190;DHT22;40340;53.208;6.582;2022-07-09T01:46:50;17.00;99.90
54190;DHT22;40340;53.208;6.582;2022-07-09T01:49:15;17.10;99.90
54190;DHT22;40340;53.208;6.582;2022-07-09T01:51:41;17.00;99.90
54190;DHT22;40340;53.208;6.582;2022-07-09T01:54:07;17.10;99.90
54190;DHT22;40340;53.208;6.582;2022-07-09T01:56:32;17.00;99.90
54190;DHT22;40340;53.208;6.582;2022-07-09T01:59:00;16.90;99.90
54190;DHT22;40340;53.208;6.582;2022-07-09T02:01:26;17.00;99.90
54190;DHT22;40340;53.208;6.582;2022-07-09T02:03:51;17.00;99.90
54190;DHT22;40340;53.208;6.582;2022-07-09T02:06:17;17.00;99.90
54190;DHT22;40340;53.208;6.582;2022-07-09T02:08:44;17.00;99.90
54190;DHT22;40340;53.208;6.582;2022-07-09T02:11:10;17.00;99.90
54190;DHT22;40340;53.208;6.582;2022-07-09T02:13:36;16.90;99.90
54190;DHT22;40340;53.208;6.582;2022-07-09T02:16:01;16.90;99.90
54190;DHT22;40340;53.208;6.582;2022-07-09T02:18:27;16.90;99.90
54190;DHT22;40340;53.208;6.582;2022-07-09T02:20:53;16.90;99.90
54190;DHT22;40340;53.208;6.582;2022-07-09T02:23:22;16.80;99.90
54190;DHT22;40340;53.208;6.582;2022-07-09T02:25:47;16.80;99.90
54190;DHT22;40340;53.208;6.582;2022-07-09T02:28:13;16.80;99.90
54190;DHT22;40340;53.208;6.582;2022-07-09T02:30:38;16.90;99.90
54190;DHT22;40340;53.208;6.582;2022-07-09T02:33:04;16.90;99.90
54190;DHT22;40340;53.208;6.582;2022-07-09T02:35:30;16.90;99.90
54190;DHT22;40340;53.208;6.582;2022-07-09T02:37:56;16.80;99.90
54190;DHT22;40340;53.208;6.582;2022-07-09T02:40:22;16.90;99.90
54190;DHT22;40340;53.208;6.582;2022-07-09T02:42:48;16.90;99.90
54190;DHT22;40340;53.208;6.582;2022-07-09T02:45:13;16.80;99.90
54190;DHT22;40340;53.208;6.582;2022-07-09T02:47:39;16.90;99.90
54190;DHT22;40340;53.208;6.582;2022-07-09T02:50:05;16.80;99.90
54190;DHT22;40340;53.208;6.582;2022-07-09T02:52:31;16.80;99.90
54190;DHT22;40340;53.208;6.582;2022-07-09T02:54:57;16.80;99.90
54190;DHT22;40340;53.208;6.582;2022-07-09T02:57:22;16.80;99.90
54190;DHT22;40340;53.208;6.582;2022-07-09T02:59:48;16.80;99.90
54190;DHT22;40340;53.208;6.582;2022-07-09T03:02:13;16.80;99.90
54190;DHT22;40340;53.208;6.582;2022-07-09T03:04:39;16.70;99.90
54190;DHT22;40340;53.208;6.582;2022-07-09T03:07:05;16.70;99.90
54190;DHT22;40340;53.208;6.582;2022-07-09T03:09:30;16.70;99.90
54190;DHT22;40340;53.208;6.582;2022-07-09T03:11:56;16.70;99.90
54190;DHT22;40340;53.208;6.582;2022-07-09T03:14:22;16.70;99.90
54190;DHT22;40340;53.208;6.582;2022-07-09T03:16:47;16.70;99.90
54190;DHT22;40340;53.208;6.582;2022-07-09T03:19:13;16.70;99.90
54190;DHT22;40340;53.208;6.582;2022-07-09T03:21:39;16.60;99.90
54190;DHT22;40340;53.208;6.582;2022-07-09T03:24:05;16.70;99.90
54190;DHT22;40340;53.208;6.582;2022-07-09T03:26:30;17.00;99.90
54190;DHT22;40340;53.208;6.582;2022-07-09T03:28:56;16.70;99.90
54190;DHT22;40340;53.208;6.582;2022-07-09T03:31:22;16.70;99.90
54190;DHT22;40340;53.208;6.582;2022-07-09T03:33:47;16.70;99.90
54190;DHT22;40340;53.208;6.582;2022-07-09T03:36:13;16.60;99.90
54190;DHT22;40340;53.208;6.582;2022-07-09T03:38:39;16.60;99.90
54190;DHT22;40340;53.208;6.582;2022-07-09T03:41:04;16.60;99.90
54190;DHT22;40340;53.208;6.582;2022-07-09T03:43:30;16.60;99.90
54190;DHT22;40340;53.208;6.582;2022-07-09T03:45:55;16.50;99.90
54190;DHT22;40340;53.208;6.582;2022-07-09T03:48:21;16.50;99.90
54190;DHT22;40340;53.208;6.582;2022-07-09T03:50:47;16.50;99.90
54190;DHT22;40340;53.208;6.582;2022-07-09T03:53:12;16.50;99.90
54190;DHT22;40340;53.208;6.582;2022-07-09T03:55:38;16.50;99.90
54190;DHT22;40340;53.208;6.582;2022-07-09T03:58:04;16.50;99.90
54190;DHT22;40340;53.208;6.582;2022-07-09T04:00:30;16.50;99.90
54190;DHT22;40340;53.208;6.582;2022-07-09T04:02:56;16.60;99.90
54190;DHT22;40340;53.208;6.582;2022-07-09T04:05:21;16.60;99.90
54190;DHT22;40340;53.208;6.582;2022-07-09T04:07:47;16.60;99.90
54190;DHT22;40340;53.208;6.582;2022-07-09T04:10:13;16.60;99.90
54190;DHT22;40340;53.208;6.582;2022-07-09T04:12:38;16.60;99.90
54190;DHT22;40340;53.208;6.582;2022-07-09T04:15:04;16.60;99.90
54190;DHT22;40340;53.208;6.582;2022-07-09T04:17:30;16.60;99.90
54190;DHT22;40340;53.208;6.582;2022-07-09T04:19:56;16.60;99.90
54190;DHT22;40340;53.208;6.582;2022-07-09T04:22:21;16.60;99.90
54190;DHT22;40340;53.208;6.582;2022-07-09T04:24:47;16.70;99.90
54190;DHT22;40340;53.208;6.582;2022-07-09T04:27:13;16.70;99.90
54190;DHT22;40340;53.208;6.582;2022-07-09T04:29:38;16.70;99.90
54190;DHT22;40340;53.208;6.582;2022-07-09T04:32:04;16.70;99.90
54190;DHT22;40340;53.208;6.582;2022-07-09T04:34:30;16.70;99.90
54190;DHT22;40340;53.208;6.582;2022-07-09T04:36:55;16.70;99.90
54190;DHT22;40340;53.208;6.582;2022-07-09T04:39:21;16.80;99.90
54190;DHT22;40340;53.208;6.582;2022-07-09T04:41:50;16.80;99.90
54190;DHT22;40340;53.208;6.582;2022-07-09T04:44:15;16.70;99.90
54190;DHT22;40340;53.208;6.582;2022-07-09T04:46:42;16.70;99.90
54190;DHT22;40340;53.208;6.582;2022-07-09T04:49:09;16.70;99.90
54190;DHT22;40340;53.208;6.582;2022-07-09T04:51:35;16.70;99.90
54190;DHT22;40340;53.208;6.582;2022-07-09T04:54:00;16.80;99.90
54190;DHT22;40340;53.208;6.582;2022-07-09T04:56:26;16.80;99.90
54190;DHT22;40340;53.208;6.582;2022-07-09T04:58:51;16.80;99.90
54190;DHT22;40340;53.208;6.582;2022-07-09T05:01:18;16.80;99.90
54190;DHT22;40340;53.208;6.582;2022-07-09T05:03:44;16.80;99.90
54190;DHT22;40340;53.208;6.582;2022-07-09T05:06:15;16.90;99.90
54190;DHT22;40340;53.208;6.582;2022-07-09T05:08:41;16.90;99.90
54190;DHT22;40340;53.208;6.582;2022-07-09T05:11:07;17.00;99.90
54190;DHT22;40340;53.208;6.582;2022-07-09T05:13:33;16.90;99.90
54190;DHT22;40340;53.208;6.582;2022-07-09T05:15:58;17.00;99.90
54190;DHT22;40340;53.208;6.582;2022-07-09T05:18:24;17.00;99.90
54190;DHT22;40340;53.208;6.582;2022-07-09T05:20:50;17.00;99.90
54190;DHT22;40340;53.208;6.582;2022-07-09T05:23:15;17.10;99.90
54190;DHT22;40340;53.208;6.582;2022-07-09T05:25:41;17.10;99.90
54190;DHT22;40340;53.208;6.582;2022-07-09T05:28:07;17.10;99.90
54190;DHT22;40340;53.208;6.582;2022-07-09T05:30:32;17.10;99.90
54190;DHT22;40340;53.208;6.582;2022-07-09T05:33:03;17.20;99.90
54190;DHT22;40340;53.208;6.582;2022-07-09T05:35:29;17.20;99.90
54190;DHT22;40340;53.208;6.582;2022-07-09T05:37:55;17.20;99.90
54190;DHT22;40340;53.208;6.582;2022-07-09T05:40:21;17.20;99.90
54190;DHT22;40340;53.208;6.582;2022-07-09T05:42:46;17.30;99.90
54190;DHT22;40340;53.208;6.582;2022-07-09T05:45:12;17.30;99.90
54190;DHT22;40340;53.208;6.582;2022-07-09T05:47:38;17.30;99.90
54190;DHT22;40340;53.208;6.582;2022-07-09T05:50:03;17.60;99.90
54190;DHT22;40340;53.208;6.582;2022-07-09T05:52:29;17.30;99.90
54190;DHT22;40340;53.208;6.582;2022-07-09T05:54:55;17.30;99.90
54190;DHT22;40340;53.208;6.582;2022-07-09T05:57:20;17.40;99.90
54190;DHT22;40340;53.208;6.582;2022-07-09T05:59:46;17.40;99.90
54190;DHT22;40340;53.208;6.582;2022-07-09T06:02:12;17.40;99.90
54190;DHT22;40340;53.208;6.582;2022-07-09T06:04:37;17.50;99.90
54190;DHT22;40340;53.208;6.582;2022-07-09T06:07:03;17.40;99.90
54190;DHT22;40340;53.208;6.582;2022-07-09T06:09:29;17.50;99.90
54190;DHT22;40340;53.208;6.582;2022-07-09T06:11:55;17.50;99.90
54190;DHT22;40340;53.208;6.582;2022-07-09T06:14:20;17.40;99.90
54190;DHT22;40340;53.208;6.582;2022-07-09T06:16:46;17.50;99.90
54190;DHT22;40340;53.208;6.582;2022-07-09T06:19:13;17.50;99.90
54190;DHT22;40340;53.208;6.582;2022-07-09T06:21:38;17.50;99.90
54190;DHT22;40340;53.208;6.582;2022-07-09T06:24:05;17.60;99.90
54190;DHT22;40340;53.208;6.582;2022-07-09T06:26:31;17.60;99.90
54190;DHT22;40340;53.208;6.582;2022-07-09T06:28:57;17.60;99.90
54190;DHT22;40340;53.208;6.582;2022-07-09T06:31:22;17.60;99.90
54190;DHT22;40340;53.208;6.582;2022-07-09T06:33:48;17.70;99.90
54190;DHT22;40340;53.208;6.582;2022-07-09T06:36:14;17.70;99.90
54190;DHT22;40340;53.208;6.582;2022-07-09T06:38:40;17.70;99.90
54190;DHT22;40340;53.208;6.582;2022-07-09T06:41:24;17.60;99.90
54190;DHT22;40340;53.208;6.582;2022-07-09T06:43:50;17.70;99.90
54190;DHT22;40340;53.208;6.582;2022-07-09T06:46:15;17.70;99.90
54190;DHT22;40340;53.208;6.582;2022-07-09T06:48:41;17.80;99.90
54190;DHT22;40340;53.208;6.582;2022-07-09T06:51:06;17.80;99.90
54190;DHT22;40340;53.208;6.582;2022-07-09T06:53:32;17.80;99.90
54190;DHT22;40340;53.208;6.582;2022-07-09T06:55:58;17.90;99.90
54190;DHT22;40340;53.208;6.582;2022-07-09T06:58:23;17.90;99.90
54190;DHT22;40340;53.208;6.582;2022-07-09T07:00:49;17.90;99.90
54190;DHT22;40340;53.208;6.582;2022-07-09T07:03:15;17.90;99.90
54190;DHT22;40340;53.208;6.582;2022-07-09T07:05:40;17.90;99.90
54190;DHT22;40340;53.208;6.582;2022-07-09T07:08:06;18.00;99.90
54190;DHT22;40340;53.208;6.582;2022-07-09T07:10:32;18.00;99.90
54190;DHT22;40340;53.208;6.582;2022-07-09T07:12:57;18.10;99.90
54190;DHT22;40340;53.208;6.582;2022-07-09T07:15:23;18.10;99.90
54190;DHT22;40340;53.208;6.582;2022-07-09T07:17:49;18.20;99.90
54190;DHT22;40340;53.208;6.582;2022-07-09T07:20:15;18.20;99.90
54190;DHT22;40340;53.208;6.582;2022-07-09T07:22:43;18.20;99.90
54190;DHT22;40340;53.208;6.582;2022-07-09T07:25:09;18.50;99.90
54190;DHT22;40340;53.208;6.582;2022-07-09T07:27:34;18.40;99.90
54190;DHT22;40340;53.208;6.582;2022-07-09T07:30:00;18.50;99.90
54190;DHT22;40340;53.208;6.582;2022-07-09T07:32:25;18.60;99.90
54190;DHT22;40340;53.208;6.582;2022-07-09T07:34:51;18.60;99.90
54190;DHT22;40340;53.208;6.582;2022-07-09T07:37:17;18.60;99.90
54190;DHT22;40340;53.208;6.582;2022-07-09T07:39:42;18.70;99.90
54190;DHT22;40340;53.208;6.582;2022-07-09T07:42:08;18.80;99.90
54190;DHT22;40340;53.208;6.582;2022-07-09T07:44:33;19.00;99.90
54190;DHT22;40340;53.208;6.582;2022-07-09T07:47:00;18.90;99.90
54190;DHT22;40340;53.208;6.582;2022-07-09T07:49:25;18.90;99.90
54190;DHT22;40340;53.208;6.582;2022-07-09T07:51:51;18.90;99.90
54190;DHT22;40340;53.208;6.582;2022-07-09T07:54:16;18.90;99.90
54190;DHT22;40340;53.208;6.582;2022-07-09T07:56:42;18.80;99.90
54190;DHT22;40340;53.208;6.582;2022-07-09T07:59:08;18.90;99.90
54190;DHT22;40340;53.208;6.582;2022-07-09T08:01:33;18.70;99.90
54190;DHT22;40340;53.208;6.582;2022-07-09T08:03:59;19.00;99.90
54190;DHT22;40340;53.208;6.582;2022-07-09T08:06:25;19.10;99.90
54190;DHT22;40340;53.208;6.582;2022-07-09T08:08:51;19.20;99.90
54190;DHT22;40340;53.208;6.582;2022-07-09T08:11:16;19.20;99.90
54190;DHT22;40340;53.208;6.582;2022-07-09T08:13:42;19.10;99.90
54190;DHT22;40340;53.208;6.582;2022-07-09T08:16:08;19.10;99.90
54190;DHT22;40340;53.208;6.582;2022-07-09T08:18:33;19.20;99.90
54190;DHT22;40340;53.208;6.582;2022-07-09T08:20:59;19.20;99.90
54190;DHT22;40340;53.208;6.582;2022-07-09T08:23:24;19.10;99.90
54190;DHT22;40340;53.208;6.582;2022-07-09T08:25:50;19.30;99.90
54190;DHT22;40340;53.208;6.582;2022-07-09T08:28:16;19.50;99.90
54190;DHT22;40340;53.208;6.582;2022-07-09T08:30:41;19.60;99.90
54190;DHT22;40340;53.208;6.582;2022-07-09T08:33:07;19.50;99.90
54190;DHT22;40340;53.208;6.582;2022-07-09T08:35:33;19.70;99.90
54190;DHT22;40340;53.208;6.582;2022-07-09T08:37:59;19.70;99.90
54190;DHT22;40340;53.208;6.582;2022-07-09T08:40:27;19.60;99.90
54190;DHT22;40340;53.208;6.582;2022-07-09T08:42:54;19.50;99.90
54190;DHT22;40340;53.208;6.582;2022-07-09T08:45:20;19.50;99.90
54190;DHT22;40340;53.208;6.582;2022-07-09T08:47:46;19.60;99.90
54190;DHT22;40340;53.208;6.582;2022-07-09T08:50:12;19.80;99.90
54190;DHT22;40340;53.208;6.582;2022-07-09T08:52:40;19.90;99.90
54190;DHT22;40340;53.208;6.582;2022-07-09T08:55:07;20.00;99.90
54190;DHT22;40340;53.208;6.582;2022-07-09T08:57:33;20.00;99.90
54190;DHT22;40340;53.208;6.582;2022-07-09T09:00:03;20.00;99.90
54190;DHT22;40340;53.208;6.582;2022-07-09T09:02:39;20.00;99.90
54190;DHT22;40340;53.208;6.582;2022-07-09T09:05:10;20.00;99.90
54190;DHT22;40340;53.208;6.582;2022-07-09T09:07:36;19.90;99.90
54190;DHT22;40340;53.208;6.582;2022-07-09T09:10:01;19.90;99.90
54190;DHT22;40340;53.208;6.582;2022-07-09T10:23:53;22.00;99.90
54190;DHT22;40340;53.208;6.582;2022-07-09T10:26:18;21.60;99.90
54190;DHT22;40340;53.208;6.582;2022-07-09T10:28:44;21.20;99.90
54190;DHT22;40340;53.208;6.582;2022-07-09T10:31:09;20.80;99.90
54190;DHT22;40340;53.208;6.582;2022-07-09T10:33:45;20.50;99.90
54190;DHT22;40340;53.208;6.582;2022-07-09T10:36:15;20.40;99.90
54190;DHT22;40340;53.208;6.582;2022-07-09T10:38:53;20.30;99.90
54190;DHT22;40340;53.208;6.582;2022-07-09T10:41:22;20.30;99.90
54190;DHT22;40340;53.208;6.582;2022-07-09T10:43:52;20.40;99.90
54190;DHT22;40340;53.208;6.582;2022-07-09T10:46:18;20.40;99.90
54190;DHT22;40340;53.208;6.582;2022-07-09T10:48:45;20.30;99.90
54190;DHT22;40340;53.208;6.582;2022-07-09T10:51:22;20.30;99.90
54190;DHT22;40340;53.208;6.582;2022-07-09T10:53:48;20.30;99.90
54190;DHT22;40340;53.208;6.582;2022-07-09T10:56:21;20.50;99.90
54190;DHT22;40340;53.208;6.582;2022-07-09T10:58:48;20.50;99.90
54190;DHT22;40340;53.208;6.582;2022-07-09T11:01:19;20.60;99.90
54190;DHT22;40340;53.208;6.582;2022-07-09T11:03:51;20.60;99.90
54190;DHT22;40340;53.208;6.582;2022-07-09T11:06:17;20.60;99.90
54190;DHT22;40340;53.208;6.582;2022-07-09T11:08:43;20.60;99.90
54190;DHT22;40340;53.208;6.582;2022-07-09T11:11:09;20.80;99.90
54190;DHT22;40340;53.208;6.582;2022-07-09T11:13:34;20.90;99.90
54190;DHT22;40340;53.208;6.582;2022-07-09T11:16:00;21.10;99.90
54190;DHT22;40340;53.208;6.582;2022-07-09T11:18:28;21.50;99.90
54190;DHT22;40340;53.208;6.582;2022-07-09T11:20:53;21.90;99.90
54190;DHT22;40340;53.208;6.582;2022-07-09T11:23:19;22.10;99.90
54190;DHT22;40340;53.208;6.582;2022-07-09T11:25:45;22.20;99.90
54190;DHT22;40340;53.208;6.582;2022-07-09T11:28:22;22.00;99.90
54190;DHT22;40340;53.208;6.582;2022-07-09T11:31:02;22.00;99.90
54190;DHT22;40340;53.208;6.582;2022-07-09T11:33:29;22.20;99.90
54190;DHT22;40340;53.208;6.582;2022-07-09T11:36:14;22.40;99.90
54190;DHT22;40340;53.208;6.582;2022-07-09T11:38:52;22.70;99.90
54190;DHT22;40340;53.208;6.582;2022-07-09T11:41:19;22.90;99.90
54190;DHT22;40340;53.208;6.582;2022-07-09T11:43:48;22.90;99.90
54190;DHT22;40340;53.208;6.582;2022-07-09T11:46:16;23.00;99.90
54190;DHT22;40340;53.208;6.582;2022-07-09T11:48:52;23.10;99.90
54190;DHT22;40340;53.208;6.582;2022-07-09T11:51:30;23.60;99.90
54190;DHT22;40340;53.208;6.582;2022-07-09T11:53:56;23.70;99.00
54190;DHT22;40340;53.208;6.582;2022-07-09T11:56:21;23.60;99.80
54190;DHT22;40340;53.208;6.582;2022-07-09T11:58:51;23.90;99.70
54190;DHT22;40340;53.208;6.582;2022-07-09T12:01:16;24.00;98.20
54190;DHT22;40340;53.208;6.582;2022-07-09T12:03:49;24.00;98.40
54190;DHT22;40340;53.208;6.582;2022-07-09T12:06:16;24.00;97.90
54190;DHT22;40340;53.208;6.582;2022-07-09T12:08:42;24.00;97.40
54190;DHT22;40340;53.208;6.582;2022-07-09T12:11:07;24.00;98.20
54190;DHT22;40340;53.208;6.582;2022-07-09T12:13:33;24.30;98.30
54190;DHT22;40340;53.208;6.582;2022-07-09T12:15:59;24.40;97.60
54190;DHT22;40340;53.208;6.582;2022-07-09T12:18:24;24.30;97.20
54190;DHT22;40340;53.208;6.582;2022-07-09T12:20:50;24.60;96.70
54190;DHT22;40340;53.208;6.582;2022-07-09T12:23:16;24.80;96.70
54190;DHT22;40340;53.208;6.582;2022-07-09T12:25:42;24.90;96.90
54190;DHT22;40340;53.208;6.582;2022-07-09T12:28:07;25.10;96.00
54190;DHT22;40340;53.208;6.582;2022-07-09T12:30:33;25.10;96.00
54190;DHT22;40340;53.208;6.582;2022-07-09T12:32:59;25.20;94.70
54190;DHT22;40340;53.208;6.582;2022-07-09T12:35:25;24.90;95.50
54190;DHT22;40340;53.208;6.582;2022-07-09T12:37:51;24.70;95.70
54190;DHT22;40340;53.208;6.582;2022-07-09T12:40:17;24.70;96.00
54190;DHT22;40340;53.208;6.582;2022-07-09T12:42:43;24.60;95.80
54190;DHT22;40340;53.208;6.582;2022-07-09T12:45:09;24.30;95.80
54190;DHT22;40340;53.208;6.582;2022-07-09T12:47:34;24.10;95.80
54190;DHT22;40340;53.208;6.582;2022-07-09T12:50:00;23.80;95.60
54190;DHT22;40340;53.208;6.582;2022-07-09T12:52:32;23.90;96.30
54190;DHT22;40340;53.208;6.582;2022-07-09T12:55:02;24.00;95.80
54190;DHT22;40340;53.208;6.582;2022-07-09T12:57:28;23.70;95.80
54190;DHT22;40340;53.208;6.582;2022-07-09T12:59:54;23.60;96.00
54190;DHT22;40340;53.208;6.582;2022-07-09T13:02:20;23.50;96.00
54190;DHT22;40340;53.208;6.582;2022-07-09T13:04:45;23.40;95.80
54190;DHT22;40340;53.208;6.582;2022-07-09T13:07:11;23.00;96.00
54190;DHT22;40340;53.208;6.582;2022-07-09T13:09:36;22.80;96.60
54190;DHT22;40340;53.208;6.582;2022-07-09T13:12:03;22.70;97.00
54190;DHT22;40340;53.208;6.582;2022-07-09T13:14:28;22.60;97.20
54190;DHT22;40340;53.208;6.582;2022-07-09T13:16:54;22.60;97.50
54190;DHT22;40340;53.208;6.582;2022-07-09T13:19:19;22.60;97.40
54190;DHT22;40340;53.208;6.582;2022-07-09T13:21:45;22.60;97.60
54190;DHT22;40340;53.208;6.582;2022-07-09T13:24:11;22.70;97.00
54190;DHT22;40340;53.208;6.582;2022-07-09T13:26:36;22.80;97.30
54190;DHT22;40340;53.208;6.582;2022-07-09T13:29:02;22.80;96.80
54190;DHT22;40340;53.208;6.582;2022-07-09T13:31:28;22.70;96.90
54190;DHT22;40340;53.208;6.582;2022-07-09T13:33:54;22.90;97.00
54190;DHT22;40340;53.208;6.582;2022-07-09T13:36:19;22.80;96.40
54190;DHT22;40340;53.208;6.582;2022-07-09T13:38:45;22.70;96.30
54190;DHT22;40340;53.208;6.582;2022-07-09T13:41:10;22.70;96.60
54190;DHT22;40340;53.208;6.582;2022-07-09T13:43:36;22.60;96.70
54190;DHT22;40340;53.208;6.582;2022-07-09T13:46:02;22.70;97.10
54190;DHT22;40340;53.208;6.582;2022-07-09T13:48:29;22.50;96.90
54190;DHT22;40340;53.208;6.582;2022-07-09T13:50:55;22.50;96.80
54190;DHT22;40340;53.208;6.582;2022-07-09T13:53:20;22.30;96.70
54190;DHT22;40340;53.208;6.582;2022-07-09T13:55:46;22.30;97.00
54190;DHT22;40340;53.208;6.582;2022-07-09T13:58:12;22.10;97.10
54190;DHT22;40340;53.208;6.582;2022-07-09T14:00:38;21.90;97.20
54190;DHT22;40340;53.208;6.582;2022-07-09T14:03:03;21.80;96.90
54190;DHT22;40340;53.208;6.582;2022-07-09T14:05:29;21.50;97.50
54190;DHT22;40340;53.208;6.582;2022-07-09T14:07:55;21.30;97.90
54190;DHT22;40340;53.208;6.582;2022-07-09T14:10:22;21.20;99.00
54190;DHT22;40340;53.208;6.582;2022-07-09T14:12:48;21.00;99.20
54190;DHT22;40340;53.208;6.582;2022-07-09T14:15:14;21.00;99.60
54190;DHT22;40340;53.208;6.582;2022-07-09T14:17:40;20.80;99.60
54190;DHT22;40340;53.208;6.582;2022-07-09T14:20:06;20.80;99.80
54190;DHT22;40340;53.208;6.582;2022-07-09T14:22:32;20.70;99.70
54190;DHT22;40340;53.208;6.582;2022-07-09T14:24:58;20.60;99.90
54190;DHT22;40340;53.208;6.582;2022-07-09T14:27:24;20.70;99.90
54190;DHT22;40340;53.208;6.582;2022-07-09T14:29:49;20.60;99.90
54190;DHT22;40340;53.208;6.582;2022-07-09T14:32:15;20.60;99.90
54190;DHT22;40340;53.208;6.582;2022-07-09T14:34:40;20.60;99.90
54190;DHT22;40340;53.208;6.582;2022-07-09T14:37:06;20.60;99.90
54190;DHT22;40340;53.208;6.582;2022-07-09T14:39:32;20.60;99.80
54190;DHT22;40340;53.208;6.582;2022-07-09T14:41:57;20.70;99.90
54190;DHT22;40340;53.208;6.582;2022-07-09T14:44:23;20.60;99.40
54190;DHT22;40340;53.208;6.582;2022-07-09T14:46:49;20.60;99.20
54190;DHT22;40340;53.208;6.582;2022-07-09T14:49:15;20.60;98.40
54190;DHT22;40340;53.208;6.582;2022-07-09T14:51:41;20.60;98.40
54190;DHT22;40340;53.208;6.582;2022-07-09T14:54:07;20.70;98.30
54190;DHT22;40340;53.208;6.582;2022-07-09T14:56:33;20.80;98.20
54190;DHT22;40340;53.208;6.582;2022-07-09T14:58:59;20.70;98.40
54190;DHT22;40340;53.208;6.582;2022-07-09T15:01:24;20.70;98.20
54190;DHT22;40340;53.208;6.582;2022-07-09T15:03:50;20.60;98.60
54190;DHT22;40340;53.208;6.582;2022-07-09T15:06:16;20.60;98.50
54190;DHT22;40340;53.208;6.582;2022-07-09T15:08:42;20.70;98.60
54190;DHT22;40340;53.208;6.582;2022-07-09T15:11:09;20.50;98.40
54190;DHT22;40340;53.208;6.582;2022-07-09T15:13:35;20.50;98.60
54190;DHT22;40340;53.208;6.582;2022-07-09T15:16:00;20.50;99.00
54190;DHT22;40340;53.208;6.582;2022-07-09T15:18:26;20.40;99.10
54190;DHT22;40340;53.208;6.582;2022-07-09T15:20:52;20.30;99.00
54190;DHT22;40340;53.208;6.582;2022-07-09T15:23:18;20.10;99.30
54190;DHT22;40340;53.208;6.582;2022-07-09T15:25:43;20.10;99.60
54190;DHT22;40340;53.208;6.582;2022-07-09T15:28:09;20.00;99.60
54190;DHT22;40340;53.208;6.582;2022-07-09T15:30:39;20.20;99.90
54190;DHT22;40340;53.208;6.582;2022-07-09T15:33:04;20.10;99.90
54190;DHT22;40340;53.208;6.582;2022-07-09T15:35:30;20.20;99.90
54190;DHT22;40340;53.208;6.582;2022-07-09T15:37:56;20.20;99.90
54190;DHT22;40340;53.208;6.582;2022-07-09T15:40:21;20.00;99.90
54190;DHT22;40340;53.208;6.582;2022-07-09T15:42:47;20.00;99.90
54190;DHT22;40340;53.208;6.582;2022-07-09T15:45:14;20.00;99.90
54190;DHT22;40340;53.208;6.582;2022-07-09T15:47:40;20.10;99.90
54190;DHT22;40340;53.208;6.582;2022-07-09T15:50:06;20.10;99.90
54190;DHT22;40340;53.208;6.582;2022-07-09T15:52:33;20.10;99.90
54190;DHT22;40340;53.208;6.582;2022-07-09T15:54:59;20.10;99.90
54190;DHT22;40340;53.208;6.582;2022-07-09T15:57:25;20.10;99.90
54190;DHT22;40340;53.208;6.582;2022-07-09T15:59:51;20.00;99.90
54190;DHT22;40340;53.208;6.582;2022-07-09T16:02:16;19.90;99.90
54190;DHT22;40340;53.208;6.582;2022-07-09T16:04:42;19.80;99.90
54190;DHT22;40340;53.208;6.582;2022-07-09T16:07:08;19.70;99.90
54190;DHT22;40340;53.208;6.582;2022-07-09T16:09:33;19.60;99.90
54190;DHT22;40340;53.208;6.582;2022-07-09T16:11:59;19.60;99.90
54190;DHT22;40340;53.208;6.582;2022-07-09T16:14:43;19.50;99.90
54190;DHT22;40340;53.208;6.582;2022-07-09T16:17:09;19.60;99.90
54190;DHT22;40340;53.208;6.582;2022-07-09T16:19:34;19.60;99.90
54190;DHT22;40340;53.208;6.582;2022-07-09T16:22:00;19.60;99.90
54190;DHT22;40340;53.208;6.582;2022-07-09T16:24:25;19.60;99.90
54190;DHT22;40340;53.208;6.582;2022-07-09T16:26:51;19.50;99.90
54190;DHT22;40340;53.208;6.582;2022-07-09T16:29:16;19.50;99.90
54190;DHT22;40340;53.208;6.582;2022-07-09T16:31:44;19.40;99.90
54190;DHT22;40340;53.208;6.582;2022-07-09T16:34:09;19.50;99.90
54190;DHT22;40340;53.208;6.582;2022-07-09T16:36:35;19.40;99.90